createdAt,value
2019-03-15T00:02:11.779Z,3.47
2019-03-15T00:04:44.084Z,3.52
2019-03-15T00:07:16.300Z,3.60
2019-03-15T00:09:48.550Z,3.17
2019-03-15T00:12:21.558Z,2.85
2019-03-15T00:14:53.894Z,3.50
2019-03-15T00:17:26.144Z,3.10
2019-03-15T00:19:58.490Z,2.80
2019-03-15T00:22:30.766Z,3.10
2019-03-15T00:25:03.291Z,2.83
2019-03-15T00:27:35.709Z,4.05
2019-03-15T00:30:10.195Z,3.08
2019-03-15T00:32:42.512Z,3.40
2019-03-15T00:35:14.755Z,3.60
2019-03-15T00:37:46.965Z,3.35
2019-03-15T00:40:19.220Z,2.90
2019-03-15T00:42:51.446Z,2.83
2019-03-15T00:45:23.670Z,3.23
2019-03-15T00:47:55.955Z,2.80
2019-03-15T00:50:28.202Z,3.20
2019-03-15T00:53:00.496Z,3.15
2019-03-15T00:55:36.704Z,2.90
2019-03-15T00:58:08.926Z,3.08
2019-03-15T01:00:41.166Z,2.83
2019-03-15T01:03:13.424Z,2.60
2019-03-15T01:05:45.771Z,2.80
2019-03-15T01:08:18.076Z,2.67
2019-03-15T01:10:50.322Z,2.62
2019-03-15T01:13:22.609Z,2.42
2019-03-15T01:15:54.844Z,3.05
2019-03-15T01:18:27.055Z,3.02
2019-03-15T01:20:59.347Z,2.75
2019-03-15T01:23:31.585Z,2.47
2019-03-15T01:26:04.152Z,3.15
2019-03-15T01:28:36.382Z,2.25
2019-03-15T01:31:08.657Z,2.55
2019-03-15T01:33:41.917Z,2.80
2019-03-15T01:36:14.147Z,2.90
2019-03-15T01:38:46.393Z,2.22
2019-03-15T01:41:18.643Z,2.50
2019-03-15T01:43:50.887Z,2.45
2019-03-15T01:46:23.241Z,2.35
2019-03-15T01:48:55.473Z,3.27
2019-03-15T01:51:27.721Z,2.98
2019-03-15T01:54:02.683Z,2.80
2019-03-15T01:56:34.922Z,2.37
2019-03-15T01:59:07.186Z,2.70
2019-03-15T02:01:39.502Z,2.62
2019-03-15T02:04:11.729Z,2.75
2019-03-15T02:06:43.971Z,2.40
2019-03-15T02:09:16.208Z,2.00
2019-03-15T02:11:48.510Z,2.02
2019-03-15T02:14:20.799Z,2.20
2019-03-15T02:16:53.156Z,2.30
2019-03-15T02:19:25.421Z,3.08
2019-03-15T02:21:58.586Z,2.05
2019-03-15T02:24:30.823Z,2.15
2019-03-15T02:27:03.122Z,2.10
2019-03-15T02:29:35.345Z,2.10
2019-03-15T02:32:07.590Z,2.45
2019-03-15T02:34:39.827Z,2.65
2019-03-15T02:37:12.090Z,2.47
2019-03-15T02:39:45.384Z,1.87
2019-03-15T02:42:18.398Z,2.17
2019-03-15T02:44:50.702Z,1.77
2019-03-15T02:47:22.941Z,2.58
2019-03-15T02:49:55.166Z,2.25
2019-03-15T02:52:27.403Z,1.98
2019-03-15T02:54:59.662Z,2.55
2019-03-15T02:57:31.909Z,2.27
2019-03-15T03:00:05.396Z,2.65
2019-03-15T03:02:37.649Z,2.20
2019-03-15T03:05:12.600Z,2.05
2019-03-15T03:07:44.901Z,2.12
2019-03-15T03:10:17.259Z,1.90
2019-03-15T03:12:49.488Z,2.27
2019-03-15T03:15:21.788Z,2.20
2019-03-15T03:17:54.354Z,2.30
2019-03-15T03:20:26.924Z,1.72
2019-03-15T03:22:59.266Z,2.00
2019-03-15T03:25:31.494Z,2.45
2019-03-15T03:28:03.737Z,2.40
2019-03-15T03:30:35.962Z,2.27
2019-03-15T03:33:08.225Z,2.60
2019-03-15T03:35:40.557Z,2.67
2019-03-15T03:38:12.784Z,3.00
2019-03-15T03:40:45.181Z,3.00
2019-03-15T03:43:17.426Z,2.35
2019-03-15T03:45:49.751Z,2.30
2019-03-15T03:48:22.364Z,3.07
2019-03-15T03:50:54.694Z,3.27
2019-03-15T03:53:26.909Z,3.22
2019-03-15T03:55:59.320Z,2.20
2019-03-15T03:58:31.557Z,2.02
2019-03-15T04:01:07.448Z,2.35
2019-03-15T04:03:38.355Z,1.77
2019-03-15T04:06:10.592Z,2.98
2019-03-15T04:08:43.067Z,3.08
2019-03-15T04:11:15.288Z,2.98
2019-03-15T04:13:47.547Z,2.33
2019-03-15T04:16:19.776Z,2.40
2019-03-15T04:18:51.983Z,1.62
2019-03-15T04:21:24.233Z,2.40
2019-03-15T04:23:56.487Z,2.67
2019-03-15T04:26:28.716Z,2.05
2019-03-15T04:29:00.946Z,2.17
2019-03-15T04:31:33.163Z,2.20
2019-03-15T04:34:05.408Z,2.77
2019-03-15T04:36:38.574Z,2.67
2019-03-15T04:39:13.783Z,2.20
2019-03-15T04:41:44.778Z,3.25
2019-03-15T04:44:17.020Z,2.30
2019-03-15T04:46:49.243Z,2.70
2019-03-15T04:49:21.480Z,2.80
2019-03-15T04:51:53.705Z,2.70
2019-03-15T04:54:26.015Z,2.30
2019-03-15T04:56:58.299Z,3.10
2019-03-15T04:59:30.564Z,2.65
2019-03-15T05:02:02.807Z,2.70
2019-03-15T05:04:35.062Z,3.25
2019-03-15T05:07:07.293Z,3.50
2019-03-15T05:09:39.534Z,3.83
2019-03-15T05:12:11.772Z,3.30
2019-03-15T05:14:44.015Z,3.67
2019-03-15T05:17:16.244Z,3.20
2019-03-15T05:19:48.590Z,3.05
2019-03-15T05:22:20.826Z,3.05
2019-03-15T05:24:53.090Z,3.22
2019-03-15T05:27:25.322Z,3.02
2019-03-15T05:29:57.823Z,3.72
2019-03-15T05:32:31.137Z,3.12
2019-03-15T05:35:04.158Z,2.65
2019-03-15T05:37:36.380Z,2.92
2019-03-15T05:40:08.686Z,3.60
2019-03-15T05:42:40.939Z,3.20
2019-03-15T05:45:13.356Z,2.90
2019-03-15T05:47:45.599Z,3.33
2019-03-15T05:50:17.923Z,3.00
2019-03-15T05:52:50.154Z,2.83
2019-03-15T05:55:22.384Z,3.20
2019-03-15T05:57:54.660Z,3.42
2019-03-15T06:00:26.904Z,2.90
2019-03-15T06:02:59.150Z,3.12
2019-03-15T06:05:31.424Z,2.92
2019-03-15T06:08:03.713Z,3.10
2019-03-15T06:10:35.942Z,3.17
2019-03-15T06:13:08.159Z,2.62
2019-03-15T06:15:40.716Z,2.80
2019-03-15T06:18:12.959Z,3.02
2019-03-15T06:20:45.213Z,3.00
2019-03-15T06:23:17.677Z,3.10
2019-03-15T06:25:49.905Z,2.77
2019-03-15T06:28:22.129Z,3.27
2019-03-15T06:30:54.389Z,2.92
2019-03-15T06:33:28.753Z,2.37
2019-03-15T06:36:00.568Z,2.62
2019-03-15T06:38:33.687Z,2.77
2019-03-15T06:41:06.036Z,2.77
2019-03-15T06:43:38.267Z,3.00
2019-03-15T06:46:10.523Z,2.72
2019-03-15T06:48:45.053Z,2.20
2019-03-15T06:51:16.702Z,2.70
2019-03-15T06:53:48.968Z,2.67
2019-03-15T06:56:21.254Z,2.75
2019-03-15T06:58:53.461Z,2.47
2019-03-15T07:01:25.796Z,2.93
2019-03-15T07:03:58.007Z,3.05
2019-03-15T07:06:30.254Z,2.10
2019-03-15T07:09:02.481Z,2.05
2019-03-15T07:11:34.709Z,2.33
2019-03-15T07:14:06.921Z,2.05
2019-03-15T07:16:39.178Z,2.70
2019-03-15T07:19:11.402Z,2.90
2019-03-15T07:21:46.700Z,2.35
2019-03-15T07:24:24.973Z,2.35
2019-03-15T07:26:51.581Z,2.20
2019-03-15T07:29:23.806Z,1.75
2019-03-15T07:31:56.075Z,2.10
2019-03-15T07:34:28.306Z,1.90
2019-03-15T07:37:00.549Z,2.10
2019-03-15T07:39:32.775Z,2.67
2019-03-15T07:42:05.019Z,1.92
2019-03-15T07:44:37.230Z,1.92
2019-03-15T07:47:09.448Z,1.42
2019-03-15T07:49:41.736Z,1.90
2019-03-15T07:52:14.869Z,1.92
2019-03-15T07:54:47.087Z,1.92
2019-03-15T07:57:19.393Z,1.15
2019-03-15T07:59:51.618Z,1.65
2019-03-15T08:02:24.978Z,1.55
2019-03-15T08:04:57.290Z,1.27
2019-03-15T08:07:37.346Z,1.77
2019-03-15T08:10:08.248Z,1.47
2019-03-15T08:12:40.487Z,1.40
2019-03-15T08:15:13.090Z,0.75
2019-03-15T08:17:45.344Z,1.45
2019-03-15T08:20:17.686Z,1.40
2019-03-15T08:22:49.928Z,1.20
2019-03-15T08:25:22.165Z,1.00
2019-03-15T08:27:54.484Z,1.07
2019-03-15T08:30:26.824Z,1.80
2019-03-15T08:33:09.510Z,1.42
2019-03-15T08:35:33.032Z,1.98
2019-03-15T08:38:05.551Z,1.77
2019-03-15T08:40:37.823Z,1.80
2019-03-15T08:43:10.066Z,2.12
2019-03-15T08:45:42.287Z,0.70
2019-03-15T08:48:14.533Z,1.10
2019-03-15T08:50:46.781Z,0.82
2019-03-15T08:53:19.034Z,0.95
2019-03-15T08:55:51.284Z,0.98
2019-03-15T08:58:23.518Z,1.40
2019-03-15T09:00:55.736Z,1.12
2019-03-15T09:03:28.561Z,1.02
2019-03-15T09:06:02.419Z,1.25
2019-03-15T09:08:37.174Z,1.50
2019-03-15T09:11:08.690Z,2.35
2019-03-15T09:13:40.927Z,0.78
2019-03-15T09:16:13.168Z,1.05
2019-03-15T09:18:45.417Z,1.07
2019-03-15T09:21:17.634Z,1.52
2019-03-15T09:23:50.082Z,1.60
2019-03-15T09:26:22.358Z,1.60
2019-03-15T09:28:54.694Z,0.90
2019-03-15T09:31:26.910Z,0.50
2019-03-15T09:33:59.215Z,0.40
2019-03-15T09:36:33.871Z,0.90
2019-03-15T09:39:05.833Z,2.55
2019-03-15T09:41:40.219Z,1.22
2019-03-15T09:44:12.613Z,2.00
2019-03-15T09:46:44.828Z,2.10
2019-03-15T09:49:17.069Z,2.20
2019-03-15T09:51:49.309Z,2.42
2019-03-15T09:54:21.533Z,2.25
2019-03-15T09:56:53.755Z,1.70
2019-03-15T09:59:26.021Z,1.15
2019-03-15T10:01:58.243Z,1.45
2019-03-15T10:04:30.541Z,2.15
2019-03-15T10:07:02.771Z,1.90
2019-03-15T10:09:45.319Z,0.80
2019-03-15T10:12:09.000Z,0.50
2019-03-15T10:14:41.258Z,0.80
2019-03-15T10:17:13.566Z,0.50
2019-03-15T10:19:45.836Z,0.53
2019-03-15T10:22:18.140Z,1.05
2019-03-15T10:24:50.378Z,0.85
2019-03-15T10:27:22.604Z,0.40
2019-03-15T10:29:54.826Z,0.30
2019-03-15T10:32:27.046Z,0.20
2019-03-15T10:34:59.279Z,0.20
2019-03-15T10:37:31.495Z,0.53
2019-03-15T10:40:05.306Z,0.50
2019-03-15T10:42:37.682Z,0.78
2019-03-15T10:45:10.009Z,0.40
2019-03-15T10:47:42.838Z,0.45
2019-03-15T10:50:16.312Z,0.70
2019-03-15T10:52:48.532Z,0.68
2019-03-15T10:55:21.010Z,0.37
2019-03-15T10:57:53.283Z,0.50
2019-03-15T11:00:25.510Z,0.80
2019-03-15T11:02:57.801Z,0.40
2019-03-15T11:05:30.034Z,0.50
2019-03-15T11:08:02.476Z,0.45
2019-03-15T11:10:34.781Z,0.60
2019-03-15T11:13:06.988Z,0.30
2019-03-15T11:15:39.344Z,0.50
2019-03-15T11:18:11.566Z,0.78
2019-03-15T11:20:43.969Z,0.70
2019-03-15T11:23:16.256Z,0.50
2019-03-15T11:25:48.560Z,0.30
2019-03-15T11:28:20.789Z,0.30
2019-03-15T11:30:53.047Z,0.73
2019-03-15T11:33:25.278Z,0.42
2019-03-15T11:35:58.420Z,0.42
2019-03-15T11:38:31.492Z,0.20
2019-03-15T11:41:03.734Z,0.60
2019-03-15T11:43:36.010Z,0.33
2019-03-15T11:46:08.292Z,0.55
2019-03-15T11:48:40.512Z,3.35
2019-03-15T11:51:12.766Z,1.65
2019-03-15T11:53:45.052Z,7.00
2019-03-15T11:56:27.034Z,0.70
2019-03-15T11:58:51.247Z,0.80
2019-03-15T12:01:23.484Z,0.70
2019-03-15T12:03:55.725Z,0.80
2019-03-15T12:06:27.988Z,0.80
2019-03-15T12:09:00.223Z,0.95
2019-03-15T12:11:32.551Z,0.85
2019-03-15T12:14:04.762Z,0.82
2019-03-15T12:16:37.002Z,0.70
2019-03-15T12:19:09.219Z,1.27
2019-03-15T12:21:41.457Z,1.00
2019-03-15T12:24:13.675Z,0.95
2019-03-15T12:26:45.908Z,1.22
2019-03-15T12:29:18.253Z,1.10
2019-03-15T12:31:50.693Z,1.00
2019-03-15T12:34:22.982Z,0.78
2019-03-15T12:36:55.247Z,1.00
2019-03-15T12:39:27.462Z,0.78
2019-03-15T12:41:59.691Z,1.02
2019-03-15T12:44:31.987Z,0.95
2019-03-15T12:47:06.230Z,0.95
2019-03-15T12:49:38.713Z,1.47
2019-03-15T12:52:11.000Z,1.00
2019-03-15T12:54:43.237Z,0.85
2019-03-15T12:57:15.470Z,1.00
2019-03-15T12:59:47.768Z,0.72
2019-03-15T13:02:20.535Z,1.00
2019-03-15T13:04:52.877Z,0.75
2019-03-15T13:07:25.117Z,0.80
2019-03-15T13:09:57.350Z,1.10
2019-03-15T13:12:29.692Z,0.72
2019-03-15T13:15:02.031Z,0.70
2019-03-15T13:17:34.277Z,0.42
2019-03-15T13:20:07.886Z,0.90
2019-03-15T13:22:40.193Z,0.75
2019-03-15T13:25:12.598Z,0.75
2019-03-15T13:27:44.827Z,0.80
2019-03-15T13:30:17.045Z,1.12
2019-03-15T13:32:49.295Z,0.68
2019-03-15T13:35:21.525Z,0.75
2019-03-15T13:37:53.786Z,1.10
2019-03-15T13:40:26.016Z,0.98
2019-03-15T13:42:58.248Z,0.70
2019-03-15T13:45:30.460Z,1.02
2019-03-15T13:48:02.755Z,0.88
2019-03-15T13:50:34.973Z,1.07
2019-03-15T13:53:07.312Z,0.80
2019-03-15T13:55:39.538Z,0.90
2019-03-15T13:58:11.771Z,1.10
2019-03-15T14:00:44.997Z,0.60
2019-03-15T14:03:17.263Z,0.90
2019-03-15T14:05:49.506Z,1.10
2019-03-15T14:08:21.746Z,0.70
2019-03-15T14:10:53.986Z,1.13
2019-03-15T14:13:26.232Z,1.25
2019-03-15T14:16:01.506Z,0.88
2019-03-15T14:18:32.424Z,1.60
2019-03-15T14:21:04.741Z,1.45
2019-03-15T14:23:37.004Z,1.35
2019-03-15T14:26:10.177Z,1.20
2019-03-15T14:28:42.493Z,1.00
2019-03-15T14:31:14.730Z,1.30
2019-03-15T14:33:46.962Z,1.20
2019-03-15T14:36:19.179Z,1.12
2019-03-15T14:38:51.405Z,1.67
2019-03-15T14:41:24.727Z,5.87
2019-03-15T14:43:57.032Z,0.90
2019-03-15T14:46:30.226Z,1.30
2019-03-15T14:49:05.474Z,0.60
2019-03-15T14:51:37.718Z,3.60
2019-03-15T14:54:09.961Z,1.52
2019-03-15T14:56:42.194Z,1.60
2019-03-15T14:59:15.461Z,0.90
2019-03-15T15:01:47.794Z,0.98
2019-03-15T15:04:20.088Z,0.90
2019-03-15T15:06:52.371Z,0.80
2019-03-15T15:09:24.622Z,1.52
2019-03-15T15:11:56.855Z,0.60
2019-03-15T15:14:30.038Z,0.75
2019-03-15T15:17:04.677Z,0.88
2019-03-15T15:19:36.348Z,0.57
2019-03-15T15:22:08.593Z,0.50
2019-03-15T15:24:40.871Z,0.37
2019-03-15T15:27:13.111Z,0.47
2019-03-15T15:29:45.332Z,0.60
2019-03-15T15:32:17.580Z,0.30
2019-03-15T15:34:49.809Z,0.40
2019-03-15T15:37:22.039Z,0.20
2019-03-15T15:39:54.283Z,0.30
2019-03-15T15:42:26.498Z,0.25
2019-03-15T15:44:58.733Z,0.30
2019-03-15T15:47:30.962Z,0.50
2019-03-15T15:50:03.980Z,0.60
2019-03-15T15:52:36.230Z,0.82
2019-03-15T15:55:09.243Z,0.90
2019-03-15T15:57:41.468Z,0.65
2019-03-15T16:00:15.273Z,0.90
2019-03-15T16:02:47.599Z,0.40
2019-03-15T16:05:19.820Z,0.80
2019-03-15T16:07:52.070Z,0.57
2019-03-15T16:10:24.374Z,0.53
2019-03-15T16:12:56.625Z,0.67
2019-03-15T16:15:28.825Z,0.85
2019-03-15T16:18:01.059Z,0.68
2019-03-15T16:20:33.296Z,0.88
2019-03-15T16:23:05.571Z,0.68
2019-03-15T16:25:37.812Z,0.60
2019-03-15T16:28:10.029Z,0.40
2019-03-15T16:30:43.395Z,0.40
2019-03-15T16:33:15.628Z,0.70
2019-03-15T16:35:48.863Z,1.15
2019-03-15T16:38:22.013Z,0.42
2019-03-15T16:40:54.347Z,0.53
2019-03-15T16:43:26.574Z,0.57
2019-03-15T16:45:58.874Z,0.28
2019-03-15T16:48:31.108Z,0.30
2019-03-15T16:51:03.338Z,0.30
2019-03-15T16:53:35.585Z,0.53
2019-03-15T16:56:07.795Z,0.60
2019-03-15T16:58:45.461Z,0.35
2019-03-15T17:01:14.058Z,0.20
2019-03-15T17:03:46.299Z,0.30
2019-03-15T17:06:18.516Z,0.30
2019-03-15T17:08:50.767Z,0.50
2019-03-15T17:11:22.993Z,0.30
2019-03-15T17:13:55.239Z,0.60
2019-03-15T17:16:27.485Z,0.42
2019-03-15T17:18:59.810Z,0.57
2019-03-15T17:21:32.068Z,0.60
2019-03-15T17:24:04.402Z,0.45
2019-03-15T17:26:36.694Z,1.10
2019-03-15T17:29:08.994Z,0.93
2019-03-15T17:31:41.316Z,0.23
2019-03-15T17:34:13.652Z,0.50
2019-03-15T17:36:46.031Z,0.35
2019-03-15T17:39:19.201Z,0.35
2019-03-15T17:41:51.445Z,0.57
2019-03-15T17:44:23.678Z,0.65
2019-03-15T17:46:55.906Z,0.47
2019-03-15T17:49:28.139Z,0.50
2019-03-15T17:52:00.363Z,0.50
2019-03-15T17:54:32.643Z,0.45
2019-03-15T17:57:04.841Z,0.70
2019-03-15T17:59:37.080Z,0.55
2019-03-15T18:02:09.315Z,0.23
2019-03-15T18:04:41.579Z,0.50
2019-03-15T18:07:13.787Z,0.53
2019-03-15T18:09:46.018Z,0.30
2019-03-15T18:12:18.244Z,0.60
2019-03-15T18:14:50.572Z,0.50
2019-03-15T18:17:22.787Z,0.30
2019-03-15T18:19:55.046Z,0.42
2019-03-15T18:22:27.247Z,0.50
2019-03-15T18:24:59.501Z,0.88
2019-03-15T18:27:31.724Z,0.47
2019-03-15T18:30:05.423Z,0.50
2019-03-15T18:32:37.651Z,0.40
2019-03-15T18:35:10.246Z,0.35
2019-03-15T18:37:42.463Z,0.47
2019-03-15T18:40:15.681Z,0.40
2019-03-15T18:42:47.975Z,0.70
2019-03-15T18:45:20.191Z,0.28
2019-03-15T18:47:52.428Z,0.15
2019-03-15T18:50:25.035Z,0.20
2019-03-15T18:52:57.271Z,0.50
2019-03-15T18:55:29.574Z,0.30
2019-03-15T18:58:01.814Z,0.23
2019-03-15T19:00:34.058Z,0.20
2019-03-15T19:03:06.353Z,0.45
2019-03-15T19:05:39.132Z,0.50
2019-03-15T19:08:11.371Z,0.37
2019-03-15T19:10:43.636Z,0.20
2019-03-15T19:13:15.930Z,0.37
2019-03-15T19:15:48.199Z,0.50
2019-03-15T19:18:20.419Z,0.30
2019-03-15T19:20:52.802Z,0.40
2019-03-15T19:23:25.151Z,0.30
2019-03-15T19:25:57.396Z,0.43
2019-03-15T19:28:29.640Z,0.50
2019-03-15T19:31:01.910Z,0.35
2019-03-15T19:33:34.144Z,0.40
2019-03-15T19:36:06.410Z,0.80
2019-03-15T19:38:39.191Z,0.40
2019-03-15T19:41:11.418Z,0.30
2019-03-15T19:43:43.649Z,0.30
2019-03-15T19:46:15.870Z,0.30
2019-03-15T19:48:48.094Z,2.08
2019-03-15T19:51:20.341Z,0.42
2019-03-15T19:53:52.562Z,0.40
2019-03-15T19:56:24.813Z,0.40
2019-03-15T19:58:57.072Z,0.50
2019-03-15T20:01:29.415Z,0.28
2019-03-15T20:04:01.695Z,0.60
2019-03-15T20:06:33.976Z,0.45
2019-03-15T20:09:06.996Z,0.47
2019-03-15T20:11:39.366Z,0.55
2019-03-15T20:14:11.586Z,0.60
2019-03-15T20:16:43.844Z,0.60
2019-03-15T20:19:16.073Z,0.70
2019-03-15T20:21:48.356Z,0.70
2019-03-15T20:24:20.579Z,0.57
2019-03-15T20:26:52.812Z,0.60
2019-03-15T20:29:25.040Z,0.80
2019-03-15T20:31:57.361Z,0.80
2019-03-15T20:34:29.595Z,0.80
2019-03-15T20:37:01.836Z,0.50
2019-03-15T20:39:34.070Z,1.00
2019-03-15T20:42:06.314Z,0.70
2019-03-15T20:44:39.180Z,0.90
2019-03-15T20:47:11.431Z,0.60
2019-03-15T20:49:43.642Z,0.60
2019-03-15T20:52:15.886Z,0.75
2019-03-15T20:54:48.103Z,0.60
2019-03-15T20:57:20.370Z,0.90
2019-03-15T20:59:52.747Z,0.80
2019-03-15T21:02:24.971Z,1.00
2019-03-15T21:04:57.190Z,1.27
2019-03-15T21:07:29.424Z,1.30
2019-03-15T21:10:01.745Z,1.55
2019-03-15T21:12:33.975Z,0.90
2019-03-15T21:15:07.281Z,1.47
2019-03-15T21:17:40.537Z,0.93
2019-03-15T21:20:14.392Z,0.90
2019-03-15T21:22:46.691Z,0.85
2019-03-15T21:25:18.930Z,1.10
2019-03-15T21:27:54.115Z,0.90
2019-03-15T21:30:25.723Z,1.60
2019-03-15T21:32:57.977Z,1.25
2019-03-15T21:35:30.176Z,1.45
2019-03-15T21:38:02.408Z,1.30
2019-03-15T21:40:34.618Z,0.85
2019-03-15T21:43:06.954Z,1.20
2019-03-15T21:45:39.496Z,1.45
2019-03-15T21:48:11.878Z,1.00
2019-03-15T21:50:44.696Z,1.85
2019-03-15T21:53:17.215Z,3.20
2019-03-15T21:55:49.435Z,3.00
2019-03-15T21:58:22.232Z,2.98
2019-03-15T22:01:02.244Z,2.67
2019-03-15T22:03:28.902Z,2.55
2019-03-15T22:06:01.129Z,2.25
2019-03-15T22:08:33.989Z,2.67
2019-03-15T22:11:06.207Z,1.82
2019-03-15T22:13:38.552Z,2.27
2019-03-15T22:16:10.840Z,1.52
2019-03-15T22:18:43.135Z,1.80
2019-03-15T22:21:15.456Z,1.62
2019-03-15T22:23:47.700Z,1.07
2019-03-15T22:26:19.922Z,1.82
2019-03-15T22:28:52.157Z,0.75
2019-03-15T22:31:24.384Z,1.40
2019-03-15T22:33:56.752Z,0.68
2019-03-15T22:36:28.981Z,1.30
2019-03-15T22:39:01.218Z,1.25
2019-03-15T22:41:35.823Z,1.10
2019-03-15T22:44:07.669Z,1.30
2019-03-15T22:46:39.905Z,1.30
2019-03-15T22:49:12.141Z,1.35
2019-03-15T22:51:44.371Z,1.32
2019-03-15T22:54:16.604Z,2.00
2019-03-15T22:56:48.826Z,1.70
2019-03-15T22:59:21.080Z,1.50
2019-03-15T23:01:53.323Z,1.77
2019-03-15T23:04:25.612Z,1.67
2019-03-15T23:06:57.836Z,1.52
2019-03-15T23:09:30.199Z,2.08
2019-03-15T23:12:02.463Z,1.52
2019-03-15T23:14:34.706Z,1.45
2019-03-15T23:17:06.935Z,1.90
2019-03-15T23:19:39.326Z,1.52
2019-03-15T23:22:11.557Z,1.52
2019-03-15T23:24:43.802Z,1.35
2019-03-15T23:27:17.020Z,2.30
2019-03-15T23:29:49.254Z,2.05
2019-03-15T23:32:21.574Z,1.60
2019-03-15T23:34:53.842Z,1.50
2019-03-15T23:37:26.143Z,1.37
2019-03-15T23:39:58.370Z,2.08
2019-03-15T23:42:30.605Z,1.60
2019-03-15T23:45:02.913Z,1.95
2019-03-15T23:47:35.124Z,1.90
2019-03-15T23:50:08.893Z,1.90
2019-03-15T23:52:41.172Z,1.80
2019-03-15T23:55:13.403Z,1.00
2019-03-15T23:57:45.648Z,2.30
